Time;durP1;ratioP1;P1;durP2;ratioP2;P2;SDS_P1;SDS_P2;PMS_P1;PMS_P2;Temp;Humidity;BMP_temperature;BMP_pressure;BME280_temperature;BME280_humidity;BME280_pressure;Samples;Min_cycle;Max_cycle;Signal;HPM_P1;HPM_P2
2021/07/15 00:00:20;;;;;;;3.08;0.40;;;;;;;15.57;100.00;99904.47;4994933;28;20057;-65
2021/07/15 00:03:07;;;;;;;0.98;0.38;;;;;;;15.57;100.00;99906.13;4954620;28;20471;-65
2021/07/15 00:05:53;;;;;;;1.95;0.30;;;;;;;15.56;100.00;99910.88;4980961;28;20045;-65
2021/07/15 00:08:37;;;;;;;1.55;0.38;;;;;;;15.56;100.00;99902.81;4980738;28;20076;-64
2021/07/15 00:11:26;;;;;;;2.45;0.55;;;;;;;15.55;100.00;99909.22;4995895;28;20100;-64
2021/07/15 00:14:10;;;;;;;2.47;0.40;;;;;;;15.54;100.00;99899.47;4980711;28;20049;-65
2021/07/15 00:16:57;;;;;;;3.45;0.40;;;;;;;15.56;100.00;99900.13;4995226;28;20049;-62
2021/07/15 00:19:41;;;;;;;1.88;0.50;;;;;;;15.54;100.00;99903.00;4994492;28;20057;-65
2021/07/15 00:22:25;;;;;;;2.83;0.45;;;;;;;15.54;100.00;99902.16;4995213;28;20167;-65
2021/07/15 00:25:13;;;;;;;5.18;0.70;;;;;;;15.52;100.00;99896.16;4994258;28;20399;-64
2021/07/15 00:27:57;;;;;;;1.92;0.43;;;;;;;15.53;100.00;99889.75;4980400;28;20057;-65
2021/07/15 00:30:41;;;;;;;2.28;0.40;;;;;;;15.53;100.00;99890.56;4995095;28;20044;-65
2021/07/15 00:33:28;;;;;;;3.17;0.50;;;;;;;15.54;100.00;99896.78;4995223;28;20126;-65
2021/07/15 00:36:12;;;;;;;1.75;0.30;;;;;;;15.55;100.00;99887.72;4994835;28;20104;-65
2021/07/15 00:38:56;;;;;;;1.85;0.50;;;;;;;15.51;100.00;99881.88;4966850;28;20081;-65
2021/07/15 00:41:40;;;;;;;5.00;0.60;;;;;;;15.52;100.00;99867.41;4993846;28;20120;-65
2021/07/15 00:44:24;;;;;;;5.00;0.50;;;;;;;15.47;100.00;99869.00;4994675;28;20073;-65
2021/07/15 00:47:08;;;;;;;4.20;0.40;;;;;;;15.51;100.00;99873.00;4980256;28;20081;-65
2021/07/15 00:49:52;;;;;;;2.30;0.43;;;;;;;15.43;100.00;99871.19;4980202;28;20053;-65
2021/07/15 00:52:38;;;;;;;0.93;0.40;;;;;;;15.45;100.00;99871.88;4966598;28;20081;-64
2021/07/15 00:55:25;;;;;;;2.13;0.30;;;;;;;15.41;100.00;99869.75;4980112;28;20074;-65
2021/07/15 00:58:12;;;;;;;2.67;0.40;;;;;;;15.42;100.00;99868.72;4979880;28;20077;-64
2021/07/15 01:00:56;;;;;;;0.30;0.30;;;;;;;15.40;100.00;99858.16;4979791;28;20057;-65
2021/07/15 01:03:40;;;;;;;3.63;0.50;;;;;;;15.40;100.00;99863.53;4979970;28;20081;-65
2021/07/15 01:06:24;;;;;;;1.52;0.40;;;;;;;15.41;100.00;99869.75;4994433;28;20052;-65
2021/07/15 01:09:07;;;;;;;1.73;0.50;;;;;;;15.42;100.00;99871.41;4993639;28;20108;-65
2021/07/15 01:12:13;;;;;;;1.08;0.50;;;;;;;15.42;100.00;99876.78;4979896;28;20124;-65
2021/07/15 01:15:11;;;;;;;0.55;0.40;;;;;;;15.41;100.00;99875.13;4993209;28;20092;-65
2021/07/15 01:18:07;;;;;;;0.20;0.20;;;;;;;15.36;100.00;99869.44;4979785;28;20411;-65
2021/07/15 01:21:00;;;;;;;1.63;0.60;;;;;;;15.31;100.00;99859.25;4994414;28;20141;-64
2021/07/15 01:24:09;;;;;;;1.20;0.32;;;;;;;15.33;100.00;99848.34;4979573;28;20104;-65
2021/07/15 01:27:11;;;;;;;0.70;0.45;;;;;;;15.29;100.00;99855.06;4979342;28;20104;-64
2021/07/15 01:30:00;;;;;;;0.82;0.40;;;;;;;15.32;100.00;99866.28;4994106;28;20469;-65
2021/07/15 01:33:15;;;;;;;0.38;0.38;;;;;;;15.35;100.00;99870.47;4979790;28;20096;-65
2021/07/15 01:36:02;;;;;;;2.83;0.70;;;;;;;15.36;100.00;99869.44;5003099;23;20038;-68
2021/07/15 01:38:52;;;;;;;3.50;0.60;;;;;;;15.33;100.00;99872.50;5013691;28;20069;-68
2021/07/15 01:41:39;;;;;;;1.08;0.32;;;;;;;15.34;100.00;99868.81;5012719;28;20095;-68
2021/07/15 01:44:25;;;;;;;1.10;0.40;;;;;;;15.32;100.00;99882.41;5012696;28;20052;-68
2021/07/15 01:47:10;;;;;;;1.58;0.50;;;;;;;15.30;100.00;99889.81;4998765;28;20107;-67
2021/07/15 01:49:56;;;;;;;1.08;0.40;;;;;;;15.32;100.00;99887.78;4999020;28;20068;-67
2021/07/15 01:52:41;;;;;;;0.47;0.40;;;;;;;15.32;100.00;99886.97;5012579;28;20085;-67
2021/07/15 01:55:26;;;;;;;1.10;0.40;;;;;;;15.28;100.00;99896.34;5012604;28;20459;-68
2021/07/15 01:58:10;;;;;;;4.75;0.52;;;;;;;15.28;100.00;99882.91;5012435;28;20060;-68
2021/07/15 02:00:55;;;;;;;3.88;0.57;;;;;;;15.29;100.00;99881.94;5012565;28;20053;-68
2021/07/15 02:03:44;;;;;;;1.20;0.50;;;;;;;15.28;100.00;99885.59;4998501;28;20049;-68
2021/07/15 02:06:31;;;;;;;0.45;0.45;;;;;;;15.27;100.00;99881.25;4998546;28;20069;-67
2021/07/15 02:09:15;;;;;;;0.85;0.50;;;;;;;15.29;100.00;99885.44;4998601;28;20454;-66
2021/07/15 02:11:59;;;;;;;3.30;0.60;;;;;;;15.31;100.00;99896.03;5012293;28;20057;-68
2021/07/15 02:14:44;;;;;;;4.75;0.90;;;;;;;15.28;100.00;99890.97;5012706;28;20045;-68
2021/07/15 02:17:28;;;;;;;2.05;0.60;;;;;;;15.28;100.00;99888.28;5013333;28;20080;-68
2021/07/15 02:20:15;;;;;;;1.00;0.50;;;;;;;15.28;100.00;99886.47;5012273;28;20561;-68
2021/07/15 02:23:00;;;;;;;3.10;0.63;;;;;;;15.27;100.00;99886.63;5012075;28;20529;-68
2021/07/15 02:25:50;;;;;;;1.20;0.40;;;;;;;15.26;100.00;99887.66;5012065;28;20041;-68
2021/07/15 02:28:34;;;;;;;1.73;0.63;;;;;;;15.28;100.00;99896.34;5013441;28;20049;-68
2021/07/15 02:31:21;;;;;;;1.75;0.60;;;;;;;15.27;100.00;99890.16;5012313;28;20104;-67
2021/07/15 02:34:19;;;;;;;0.63;0.50;;;;;;;15.27;100.00;99892.84;5012252;28;20097;-68
2021/07/15 02:37:05;;;;;;;1.17;0.50;;;;;;;15.25;100.00;99902.09;4998326;28;20057;-68
2021/07/15 02:39:50;;;;;;;3.60;0.57;;;;;;;15.26;100.00;99893.03;4998346;28;20057;-64
2021/07/15 02:42:37;;;;;;;1.63;0.60;;;;;;;15.23;100.00;99896.94;5012173;28;20571;-68
2021/07/15 02:45:21;;;;;;;0.77;0.60;;;;;;;15.23;100.00;99894.25;5012058;28;20049;-67
2021/07/15 02:48:05;;;;;;;4.63;0.47;;;;;;;15.22;100.00;99891.72;4998661;28;20056;-67
2021/07/15 02:50:49;;;;;;;1.10;0.52;;;;;;;15.25;100.00;99902.09;5016998;28;20414;-68
2021/07/15 02:53:33;;;;;;;3.20;0.60;;;;;;;15.24;100.00;99890.53;5015757;28;20049;-68
2021/07/15 02:56:36;;;;;;;0.43;0.43;;;;;;;15.20;100.00;99878.47;5015336;28;20084;-68
2021/07/15 02:59:30;;;;;;;2.03;0.50;;;;;;;15.22;100.00;99879.13;4988237;28;20398;-67
2021/07/15 03:02:24;;;;;;;1.05;0.47;;;;;;;15.19;100.00;99886.72;5015831;28;20407;-67
2021/07/15 03:05:15;;;;;;;1.95;0.50;;;;;;;15.20;100.00;99889.22;5001320;28;20088;-67
2021/07/15 03:08:03;;;;;;;2.53;1.00;;;;;;;15.22;100.00;99897.09;5015363;28;20100;-68
2021/07/15 03:10:47;;;;;;;2.35;0.70;;;;;;;15.20;100.00;99904.50;5015155;28;20080;-68
2021/07/15 03:13:32;;;;;;;3.08;0.60;;;;;;;15.21;100.00;99906.16;5015442;28;20092;-68
2021/07/15 03:16:16;;;;;;;3.75;0.88;;;;;;;15.20;100.00;99899.13;5001465;28;20407;-68
2021/07/15 03:19:03;;;;;;;4.25;0.70;;;;;;;15.21;100.00;99900.81;5015275;28;20498;-68
2021/07/15 03:21:48;;;;;;;6.15;0.50;;;;;;;15.24;100.00;99900.44;5016044;28;20125;-68
2021/07/15 03:24:39;;;;;;;3.03;0.65;;;;;;;15.24;100.00;99901.28;5015231;28;20169;-67
2021/07/15 03:27:24;;;;;;;1.23;0.50;;;;;;;15.28;100.00;99901.72;5001209;28;20104;-68
2021/07/15 03:30:09;;;;;;;2.78;0.55;;;;;;;15.26;100.00;99893.88;5001030;28;20454;-67
2021/07/15 03:32:56;;;;;;;2.20;0.60;;;;;;;15.29;100.00;99887.31;5014707;28;20052;-67
2021/07/15 03:35:41;;;;;;;4.15;0.90;;;;;;;15.26;100.00;99893.03;5001322;28;20041;-67
2021/07/15 03:38:26;;;;;;;8.82;0.88;;;;;;;15.31;100.00;99891.47;5014867;28;20103;-67
2021/07/15 03:41:11;;;;;;;3.42;0.73;;;;;;;15.29;100.00;99881.94;5001042;28;20474;-68
2021/07/15 03:43:55;;;;;;;0.55;0.50;;;;;;;15.29;100.00;99892.69;5000882;28;20052;-67
2021/07/15 03:46:41;;;;;;;1.75;0.65;;;;;;;15.28;100.00;99899.03;5000992;28;20411;-69
2021/07/15 03:49:28;;;;;;;3.42;0.63;;;;;;;15.27;100.00;99905.41;5014711;28;20044;-67
2021/07/15 03:52:13;;;;;;;5.90;0.60;;;;;;;15.29;100.00;99914.16;5001221;28;20084;-67
2021/07/15 03:54:58;;;;;;;1.20;0.70;;;;;;;15.27;100.00;99910.78;5014566;28;20041;-68
2021/07/15 03:57:44;;;;;;;4.70;1.50;;;;;;;15.29;100.00;99914.16;5000392;28;20099;-67
2021/07/15 04:00:28;;;;;;;5.70;1.08;;;;;;;15.32;100.00;99919.19;4986499;28;20100;-67
2021/07/15 04:03:18;;;;;;;2.40;0.52;;;;;;;15.29;100.00;99906.91;5000815;28;20049;-68
2021/07/15 04:06:03;;;;;;;2.35;0.60;;;;;;;15.29;100.00;99903.41;5013953;28;20052;-68
2021/07/15 04:08:48;;;;;;;1.45;0.80;;;;;;;15.32;100.00;99913.81;5000752;28;20092;-68
2021/07/15 04:11:33;;;;;;;2.13;0.80;;;;;;;15.33;100.00;99913.66;5000440;28;20080;-69
2021/07/15 04:14:29;;;;;;;1.92;0.70;;;;;;;15.36;100.00;99923.16;5013962;28;20569;-68
2021/07/15 04:17:14;;;;;;;2.47;0.80;;;;;;;15.39;100.00;99920.13;4986336;28;20096;-67
2021/07/15 04:20:00;;;;;;;0.88;0.70;;;;;;;15.39;100.00;99915.56;5014784;28;20057;-67
2021/07/15 04:22:45;;;;;;;1.48;0.80;;;;;;;15.41;100.00;99915.41;5000459;28;20457;-67
2021/07/15 04:25:30;;;;;;;0.98;0.80;;;;;;;15.42;100.00;99909.00;5013927;28;20076;-68
2021/07/15 04:28:14;;;;;;;;;;;;;;;15.40;100.00;99916.44;5014229;28;20077;-68
2021/07/15 04:31:09;;;;;;;0.70;0.70;;;;;;;15.39;100.00;99922.81;4986381;28;19921;-68
2021/07/15 04:33:55;;;;;;;1.60;0.80;;;;;;;15.40;100.00;99928.00;5013611;28;20092;-68
2021/07/15 04:36:39;;;;;;;1.92;0.80;;;;;;;15.42;100.00;99925.13;5013351;28;20053;-68
2021/07/15 04:39:26;;;;;;;2.25;0.98;;;;;;;15.45;100.00;99924.75;5000044;28;20060;-68
2021/07/15 04:42:11;;;;;;;2.75;0.80;;;;;;;15.44;100.00;99917.72;5000558;28;20453;-67
2021/07/15 04:44:55;;;;;;;2.05;1.05;;;;;;;15.49;100.00;99920.72;5014735;28;20410;-68
2021/07/15 04:47:40;;;;;;;1.45;0.85;;;;;;;15.50;100.00;99933.13;5013569;28;20057;-68
2021/07/15 04:50:31;;;;;;;2.13;1.08;;;;;;;15.51;100.00;99934.78;4999781;28;20111;-66
2021/07/15 04:53:19;;;;;;;2.47;1.20;;;;;;;15.51;100.00;99934.78;4999581;28;20049;-68
2021/07/15 04:56:04;;;;;;;4.22;1.10;;;;;;;15.50;100.00;99933.94;5013510;28;20096;-68
2021/07/15 04:58:48;;;;;;;5.38;1.00;;;;;;;15.54;100.00;99942.47;5013478;28;20049;-68
2021/07/15 05:01:33;;;;;;;7.25;1.10;;;;;;;15.60;100.00;99944.44;4999381;28;20537;-68
2021/07/15 05:04:17;;;;;;;2.30;0.95;;;;;;;15.63;100.00;99940.34;5014475;28;20143;-68
2021/07/15 05:07:00;;;;;;;1.77;0.88;;;;;;;15.58;100.00;99940.03;4999389;28;20088;-68
2021/07/15 05:09:44;;;;;;;4.55;1.20;;;;;;;15.62;100.00;99942.38;5014169;28;20099;-68
2021/07/15 05:12:28;;;;;;;2.60;1.45;;;;;;;15.67;100.00;99948.88;5012916;28;20095;-68
2021/07/15 05:15:13;;;;;;;3.80;1.10;;;;;;;15.71;100.00;99958.22;5000167;28;20096;-68
2021/07/15 05:17:56;;;;;;;2.65;1.30;;;;;;;15.71;100.00;99958.22;5013188;28;20055;-68
2021/07/15 05:20:40;;;;;;;3.88;1.13;;;;;;;15.72;100.00;99944.63;5013012;28;20108;-68
2021/07/15 05:23:24;;;;;;;3.38;1.00;;;;;;;15.76;100.00;99945.91;5013026;28;20414;-68
2021/07/15 05:26:09;;;;;;;;;;;;;;;15.80;100.00;99944.53;5014605;28;20517;-68
2021/07/15 05:28:54;;;;;;;2.88;1.00;;;;;;;15.90;100.00;99941.56;4998871;28;19959;-68
2021/07/15 05:31:38;;;;;;;1.20;0.80;;;;;;;15.91;100.00;99960.19;5012615;28;20072;-67
2021/07/15 05:34:22;;;;;;;1.73;1.20;;;;;;;15.95;100.00;99972.25;5012930;28;20048;-68
2021/07/15 05:37:06;;;;;;;;;;;;;;;15.92;100.00;99971.78;5012956;28;20129;-68
2021/07/15 05:39:50;;;;;;;4.97;1.05;;;;;;;15.95;100.00;99966.88;4985249;28;19924;-67
2021/07/15 05:42:37;;;;;;;1.23;1.10;;;;;;;15.98;100.00;99977.22;5013553;28;20141;-68
2021/07/15 05:45:21;;;;;;;6.95;1.42;;;;;;;16.06;100.00;99979.84;4999012;28;20130;-68
2021/07/15 05:48:05;;;;;;;1.08;1.00;;;;;;;16.05;100.00;99977.34;5012557;28;20092;-66
2021/07/15 05:50:49;;;;;;;2.13;1.15;;;;;;;16.12;100.00;99989.88;5012807;28;20048;-68
2021/07/15 05:53:33;;;;;;;0.80;0.80;;;;;;;16.14;100.00;99998.56;5013451;28;20237;-68
2021/07/15 05:56:17;;;;;;;3.63;1.08;;;;;;;16.19;100.00;99998.84;4998535;28;20049;-68
2021/07/15 05:59:01;;;;;;;1.33;1.00;;;;;;;16.26;100.00;99990.88;5012894;28;20537;-68
2021/07/15 06:01:44;;;;;;;1.08;0.85;;;;;;;16.38;100.00;99997.47;4998514;28;20099;-68
2021/07/15 06:04:28;;;;;;;1.23;1.13;;;;;;;16.37;100.00;99998.50;5012349;28;20076;-68
2021/07/15 06:07:12;;;;;;;3.17;0.98;;;;;;;16.42;100.00;99996.91;4998301;28;20096;-68
2021/07/15 06:09:56;;;;;;;1.95;0.80;;;;;;;16.38;100.00;99995.59;4998904;28;20092;-68
2021/07/15 06:12:41;;;;;;;3.10;0.90;;;;;;;16.42;100.00;99985.31;5012339;28;20072;-66
2021/07/15 06:15:25;;;;;;;2.40;1.05;;;;;;;16.53;100.00;99988.38;4998619;28;20133;-68
2021/07/15 06:18:08;;;;;;;4.10;1.25;;;;;;;16.66;100.00;99988.50;5012378;28;20410;-68
2021/07/15 06:20:52;;;;;;;2.15;1.15;;;;;;;16.56;100.00;99987.16;4998794;28;20056;-68
2021/07/15 06:23:36;;;;;;;0.90;0.82;;;;;;;16.60;100.00;99991.94;5001751;28;20061;-68
2021/07/15 06:26:20;;;;;;;1.02;0.93;;;;;;;16.73;100.00;99988.59;5016206;28;20056;-66
2021/07/15 06:29:04;;;;;;;2.53;0.93;;;;;;;16.96;100.00;99984.69;5016158;28;20173;-68
2021/07/15 06:31:49;;;;;;;1.27;0.90;;;;;;;16.93;100.00;99979.72;4989178;28;20072;-68
2021/07/15 06:34:32;;;;;;;1.50;0.95;;;;;;;17.19;100.00;99974.56;5002330;28;20080;-68
2021/07/15 06:37:17;;;;;;;1.02;0.80;;;;;;;17.44;100.00;99981.25;5001802;28;20104;-68
2021/07/15 06:40:03;;;;;;;1.40;0.90;;;;;;;17.44;100.00;99983.94;5015788;28;20099;-68
2021/07/15 06:42:49;;;;;;;0.70;0.70;;;;;;;17.50;100.00;99979.66;5002488;28;20056;-68
2021/07/15 06:45:33;;;;;;;0.95;0.70;;;;;;;17.58;100.00;99977.63;5015626;28;20115;-68
2021/07/15 06:48:17;;;;;;;1.90;0.70;;;;;;;17.55;100.00;99980.72;5015995;28;20069;-68
2021/07/15 06:51:02;;;;;;;0.60;0.60;;;;;;;17.54;100.00;99989.00;4988493;28;20124;-67
2021/07/15 06:53:48;;;;;;;0.57;0.57;;;;;;;17.62;100.00;99986.97;5002114;28;20049;-68
2021/07/15 06:56:32;;;;;;;1.80;0.65;;;;;;;17.62;100.00;99988.84;5001564;28;20141;-68
2021/07/15 06:59:16;;;;;;;0.47;0.45;;;;;;;17.79;100.00;99982.97;5001737;28;20414;-68
2021/07/15 07:02:00;;;;;;;0.88;0.70;;;;;;;17.82;100.00;99982.56;5015338;28;20531;-69
2021/07/15 07:04:43;;;;;;;0.82;0.60;;;;;;;17.97;100.00;99986.00;5016326;28;20458;-68
2021/07/15 07:07:28;;;;;;;0.70;0.70;;;;;;;18.24;100.00;99986.97;5015851;28;20084;-68
2021/07/15 07:10:12;;;;;;;1.58;0.60;;;;;;;18.47;100.00;99983.78;5015492;28;20410;-66
2021/07/15 07:12:56;;;;;;;0.70;0.70;;;;;;;18.54;100.00;99983.81;5015532;28;20091;-68
2021/07/15 07:15:40;;;;;;;0.50;0.50;;;;;;;18.50;100.00;99990.66;5001477;28;20510;-68
2021/07/15 07:18:24;;;;;;;0.88;0.80;;;;;;;18.45;100.00;99993.16;5001691;28;20108;-68
2021/07/15 07:21:08;;;;;;;2.47;0.95;;;;;;;18.33;100.00;99991.22;5015602;28;20549;-68
2021/07/15 07:23:52;;;;;;;0.90;0.65;;;;;;;18.36;100.00;99991.66;5001217;28;20049;-68
2021/07/15 07:26:36;;;;;;;1.00;0.88;;;;;;;18.36;100.00;99994.34;5014841;28;20053;-68
2021/07/15 07:29:20;;;;;;;0.70;0.70;;;;;;;18.51;100.00;99993.16;5015112;28;20124;-68
2021/07/15 07:32:04;;;;;;;1.13;1.02;;;;;;;18.49;100.00;100002.50;4987291;28;20131;-68
2021/07/15 07:34:47;;;;;;;0.98;0.88;;;;;;;18.54;100.00;100000.00;5000466;28;20073;-68
2021/07/15 07:37:33;;;;;;;0.85;0.82;;;;;;;18.52;100.00;99997.53;5012914;23;20509;-64
2021/07/15 07:40:17;;;;;;;0.85;0.85;;;;;;;18.55;100.00;99999.81;5001274;28;20069;-64
2021/07/15 07:43:01;;;;;;;0.98;0.90;;;;;;;18.65;100.00;100007.53;5001945;28;20518;-63
2021/07/15 07:45:45;;;;;;;0.80;0.80;;;;;;;18.80;100.00;100002.81;5016590;28;20048;-62
2021/07/15 07:48:29;;;;;;;2.55;0.90;;;;;;;18.86;100.00;100012.81;5001340;28;20052;-63
2021/07/15 07:51:16;;;;;;;;;;;;;;;18.96;100.00;100014.09;5001955;28;20053;-64
2021/07/15 07:54:01;;;;;;;0.70;0.70;;;;;;;19.19;100.00;100011.06;5001378;28;19921;-64
2021/07/15 07:56:44;;;;;;;0.80;0.80;;;;;;;19.22;100.00;100016.03;5015162;28;20096;-64
2021/07/15 07:59:28;;;;;;;2.63;0.82;;;;;;;19.28;100.00;100018.75;5000638;28;20049;-64
2021/07/15 08:02:13;;;;;;;1.00;0.88;;;;;;;19.35;100.00;100018.75;5000322;28;20418;-64
2021/07/15 08:04:57;;;;;;;0.60;0.60;;;;;;;19.34;100.00;100025.22;5000208;28;20581;-64
2021/07/15 08:07:42;;;;;;;0.82;0.82;;;;;;;19.24;100.00;100027.47;5015023;28;20084;-64
2021/07/15 08:10:26;;;;;;;2.08;0.90;;;;;;;19.23;100.00;100028.53;5000752;28;20077;-64
2021/07/15 08:13:10;;;;;;;0.80;0.80;;;;;;;19.21;100.00;100030.59;4986320;28;20056;-64
2021/07/15 08:15:53;;;;;;;;;;;;;;;19.19;100.00;100036.19;5015351;28;20482;-64
2021/07/15 08:18:37;;;;;;;0.97;0.77;;;;;;;19.18;100.00;100036.44;5014888;28;19943;-64
2021/07/15 08:21:24;;;;;;;1.05;0.98;;;;;;;19.29;100.00;100043.94;5000479;28;20049;-63
2021/07/15 08:24:08;;;;;;;0.63;0.63;;;;;;;19.42;100.00;100041.25;5014984;28;20052;-64
2021/07/15 08:26:52;;;;;;;1.55;1.00;;;;;;;19.54;100.00;100045.00;5014981;28;20056;-65
2021/07/15 08:29:36;;;;;;;3.20;0.98;;;;;;;19.73;100.00;100045.00;5014885;28;20169;-64
2021/07/15 08:32:21;;;;;;;;;;;;;;;19.90;100.00;100051.66;5015421;28;20049;-65
2021/07/15 08:35:06;;;;;;;0.77;0.73;;;;;;;20.15;100.00;100049.16;5014612;28;19966;-64
2021/07/15 08:37:54;;;;;;;1.00;0.90;;;;;;;20.42;97.38;100045.38;4985956;28;20076;-64
2021/07/15 08:40:38;;;;;;;0.70;0.70;;;;;;;20.64;96.20;100052.16;5014784;28;20407;-65
2021/07/15 08:43:22;;;;;;;1.23;1.13;;;;;;;20.86;93.76;100050.84;5014661;28;20458;-64
2021/07/15 08:46:07;;;;;;;1.80;1.70;;;;;;;20.99;94.03;100051.63;4999472;28;20100;-64
2021/07/15 08:48:52;;;;;;;0.73;0.73;;;;;;;20.98;93.49;100049.97;4999713;28;20048;-65
2021/07/15 08:51:36;;;;;;;1.10;1.00;;;;;;;21.04;92.60;100049.09;4999981;28;20498;-65
2021/07/15 08:54:28;;;;;;;0.70;0.70;;;;;;;21.07;90.54;100058.69;4999717;28;20133;-65
2021/07/15 08:57:15;;;;;;;2.80;0.73;;;;;;;21.04;88.92;100059.13;5014158;28;20080;-65
2021/07/15 08:59:59;;;;;;;0.90;0.73;;;;;;;21.23;89.47;100053.56;4999316;28;20049;-65
2021/07/15 09:02:44;;;;;;;1.00;1.00;;;;;;;21.45;87.82;100047.59;4999478;28;20104;-65
2021/07/15 09:05:28;;;;;;;1.48;0.80;;;;;;;21.85;82.44;100056.28;4999355;28;20516;-64
2021/07/15 09:08:13;;;;;;;2.20;0.90;;;;;;;22.41;79.87;100054.34;4999093;28;20525;-65
2021/07/15 09:10:59;;;;;;;2.63;0.90;;;;;;;22.81;75.56;100059.06;5014238;28;20049;-65
2021/07/15 09:13:43;;;;;;;1.00;1.00;;;;;;;23.14;75.15;100073.09;4999096;28;20084;-65
2021/07/15 09:16:27;;;;;;;13.73;7.53;;;;;;;23.45;75.60;100062.00;5014416;28;20080;-65
2021/07/15 09:19:12;;;;;;;;;;;;;;;23.56;75.04;100072.13;4999392;28;20065;-65
2021/07/15 09:22:10;;;;;;;4.25;1.75;;;;;;;23.61;72.82;100063.22;4998887;28;19920;-65
2021/07/15 09:24:54;;;;;;;2.10;1.30;;;;;;;23.39;71.63;100065.66;5013893;28;20629;-65
2021/07/15 09:27:46;;;;;;;;;;;;;;;23.34;72.48;100076.38;4999423;28;20136;-65
2021/07/15 09:30:30;;;;;;;3.58;1.30;;;;;;;23.33;71.74;100071.19;4998770;28;20405;-65
2021/07/15 09:33:14;;;;;;;6.05;1.35;;;;;;;23.44;74.39;100073.94;4998807;28;20415;-64
2021/07/15 09:36:10;;;;;;;0.73;0.73;;;;;;;23.55;69.34;100069.59;5013570;28;20133;-65
2021/07/15 09:38:54;;;;;;;1.85;1.02;;;;;;;23.80;69.69;100073.81;4998752;28;20485;-65
2021/07/15 09:41:38;;;;;;;6.03;0.98;;;;;;;23.99;66.76;100072.69;5013786;28;20160;-65
2021/07/15 09:44:29;;;;;;;;;;;;;;;24.35;68.67;100075.19;4998996;28;20049;-65
2021/07/15 09:47:29;;;;;;;1.05;0.80;;;;;;;24.86;67.18;100081.56;5013430;28;19963;-65
2021/07/15 09:50:16;;;;;;;1.15;0.80;;;;;;;25.04;62.99;100084.13;5013774;28;20129;-65
2021/07/15 09:53:24;;;;;;;1.33;1.23;;;;;;;25.21;65.45;100084.22;5013694;28;20055;-65
2021/07/15 09:56:16;;;;;;;0.80;0.80;;;;;;;25.07;66.42;100085.53;4998534;28;20510;-65
2021/07/15 09:59:00;;;;;;;0.80;0.80;;;;;;;25.01;66.09;100081.88;4998449;28;20052;-65
2021/07/15 10:01:45;;;;;;;;;;;;;;;24.96;65.56;100076.31;4999351;28;20103;-65
2021/07/15 10:04:28;;;;;;;;;;;;;;;24.92;64.68;100085.22;4998803;28;19967;-65
2021/07/15 10:07:13;;;;;;;1.58;0.80;;;;;;;24.82;63.55;100079.56;4984938;28;19921;-66
2021/07/15 10:10:23;;;;;;;5.95;0.90;;;;;;;24.90;64.77;100080.00;4984942;28;20049;-65
2021/07/15 10:13:14;;;;;;;2.67;1.10;;;;;;;25.02;65.08;100088.16;5013694;28;20053;-65
2021/07/15 10:16:04;;;;;;;3.50;1.15;;;;;;;25.02;64.30;100085.44;5013333;28;20148;-65
2021/07/15 10:18:50;;;;;;;1.00;0.93;;;;;;;24.97;64.70;100093.50;4998530;28;20060;-65
2021/07/15 10:21:35;;;;;;;1.35;1.00;;;;;;;24.90;65.68;100098.28;4998452;28;20518;-65
2021/07/15 10:24:25;;;;;;;1.38;0.77;;;;;;;24.80;66.12;100092.59;4998570;28;20096;-65
2021/07/15 10:27:10;;;;;;;0.93;0.93;;;;;;;24.55;63.71;100084.69;5013002;28;20049;-65
2021/07/15 10:29:55;;;;;;;1.58;0.70;;;;;;;24.50;65.00;100091.91;5013411;28;20175;-65
2021/07/15 10:32:39;;;;;;;0.95;0.80;;;;;;;24.29;64.46;100087.03;4984522;28;20168;-65
2021/07/15 10:35:25;;;;;;;0.85;0.85;;;;;;;24.28;65.74;100088.13;4998526;28;20041;-65
2021/07/15 10:38:10;;;;;;;0.90;0.90;;;;;;;24.35;65.87;100095.09;4998311;28;20470;-65
2021/07/15 10:40:56;;;;;;;1.42;1.30;;;;;;;24.53;66.06;100089.56;4998163;28;20208;-65
2021/07/15 10:43:41;;;;;;;1.73;1.35;;;;;;;24.84;63.07;100085.59;4984553;28;20049;-65
2021/07/15 10:46:25;;;;;;;1.20;1.10;;;;;;;25.31;63.17;100095.34;5013213;28;20550;-65
2021/07/15 10:49:11;;;;;;;1.00;0.85;;;;;;;25.59;61.59;100098.03;4998246;28;20509;-65
2021/07/15 10:51:56;;;;;;;2.17;1.13;;;;;;;25.69;59.89;100088.13;5013116;28;20096;-65
2021/07/15 10:54:43;;;;;;;1.17;0.90;;;;;;;25.96;59.50;100102.03;4998262;28;20049;-65
2021/07/15 10:57:27;;;;;;;0.93;0.93;;;;;;;26.02;60.32;100109.25;4998048;28;20133;-65
2021/07/15 11:00:24;;;;;;;0.95;0.90;;;;;;;26.05;59.46;100111.47;4998520;28;20088;-64
2021/07/15 11:03:20;;;;;;;1.88;1.05;;;;;;;25.88;61.09;100110.63;4998166;28;20494;-65
2021/07/15 11:06:05;;;;;;;1.10;0.82;;;;;;;25.95;61.08;100103.09;4998191;28;20076;-65
2021/07/15 11:08:48;;;;;;;2.30;1.08;;;;;;;26.77;59.32;100097.56;4998246;28;20049;-65
2021/07/15 11:11:40;;;;;;;1.70;0.80;;;;;;;28.57;53.23;100092.09;5001618;28;20125;-66
2021/07/15 11:14:34;;;;;;;0.80;0.80;;;;;;;29.71;48.15;100085.47;5001401;28;20088;-66
2021/07/15 11:17:21;;;;;;;0.80;0.80;;;;;;;30.82;46.08;100089.84;5015986;28;20091;-65
2021/07/15 11:20:05;;;;;;;2.00;0.80;;;;;;;31.16;44.36;100090.84;5016485;28;20084;-65
2021/07/15 11:23:00;;;;;;;0.88;0.70;;;;;;;31.46;45.29;100087.91;5016217;28;20119;-66
2021/07/15 11:25:44;;;;;;;0.70;0.70;;;;;;;31.56;43.04;100082.34;5001079;28;20099;-65
2021/07/15 11:28:28;;;;;;;0.88;0.80;;;;;;;31.32;43.49;100090.47;4987221;28;20068;-65
2021/07/15 11:31:53;;;;;;;2.85;1.00;;;;;;;30.84;42.55;100095.88;5015993;28;20057;-66
2021/07/15 11:34:44;;;;;;;1.08;1.05;;;;;;;30.58;44.54;100091.50;5001425;28;20426;-66
2021/07/15 11:37:31;;;;;;;0.80;0.80;;;;;;;30.38;45.53;100091.53;5015525;28;20048;-66
2021/07/15 11:40:34;;;;;;;1.52;1.00;;;;;;;30.07;44.50;100098.16;5015638;28;20053;-66
2021/07/15 11:43:21;;;;;;;0.73;0.73;;;;;;;30.12;44.19;100095.41;5016106;28;20518;-66
2021/07/15 11:46:38;;;;;;;1.13;1.10;;;;;;;30.27;44.10;100100.91;5000985;28;20052;-65
2021/07/15 11:49:24;;;;;;;0.95;0.95;;;;;;;30.17;44.55;100111.91;5015471;28;20049;-65
2021/07/15 11:52:13;;;;;;;3.17;1.10;;;;;;;30.09;44.04;100109.69;5001266;28;20111;-65
2021/07/15 11:55:10;;;;;;;3.08;1.00;;;;;;;29.74;44.31;100117.03;5000603;28;20045;-66
2021/07/15 11:57:54;;;;;;;1.30;1.10;;;;;;;29.21;46.54;100122.91;5015341;28;20049;-65
2021/07/15 12:00:38;;;;;;;1.77;1.20;;;;;;;28.90;48.67;100121.06;5015564;28;20057;-66
2021/07/15 12:03:22;;;;;;;1.02;1.02;;;;;;;28.77;48.34;100121.56;4986877;28;20056;-66
2021/07/15 12:06:10;;;;;;;2.45;1.10;;;;;;;28.49;49.52;100124.66;5000567;28;20173;-66
2021/07/15 12:09:06;;;;;;;2.90;1.38;;;;;;;28.17;49.70;100116.44;5000279;28;20116;-66
2021/07/15 12:11:51;;;;;;;2.05;1.25;;;;;;;27.90;52.05;100125.78;5000787;28;20126;-65
2021/07/15 12:14:36;;;;;;;1.40;1.30;;;;;;;27.74;51.66;100121.25;5015491;28;20096;-66
2021/07/15 12:17:20;;;;;;;1.50;1.40;;;;;;;27.58;51.79;100128.44;5015139;28;20485;-66
2021/07/15 12:20:05;;;;;;;1.50;1.40;;;;;;;27.29;53.71;100135.22;4999775;28;20161;-66
2021/07/15 12:22:52;;;;;;;2.15;1.33;;;;;;;27.28;53.99;100133.56;5015107;28;20096;-66
2021/07/15 12:25:36;;;;;;;2.72;1.52;;;;;;;27.55;55.10;100128.97;5000215;28;20073;-66
2021/07/15 12:28:26;;;;;;;1.70;1.60;;;;;;;27.97;52.04;100127.25;5014779;28;20057;-66
2021/07/15 12:31:11;;;;;;;1.60;1.42;;;;;;;28.31;50.81;100114.91;5000568;28;20521;-66
2021/07/15 12:34:02;;;;;;;1.55;1.45;;;;;;;29.12;49.97;100119.84;5014705;28;20048;-66
2021/07/15 12:36:51;;;;;;;1.50;1.40;;;;;;;29.51;48.15;100126.63;4999583;28;20048;-66
2021/07/15 12:39:35;;;;;;;1.73;1.63;;;;;;;29.54;47.47;100128.81;5014904;28;20522;-65
2021/07/15 12:42:22;;;;;;;1.70;1.60;;;;;;;29.78;47.33;100126.41;4985914;28;20096;-65
2021/07/15 12:45:14;;;;;;;1.58;1.48;;;;;;;29.90;45.17;100121.47;5014443;28;20399;-65
2021/07/15 12:48:03;;;;;;;1.67;1.58;;;;;;;29.82;45.76;100125.59;4999401;28;20052;-65
2021/07/15 12:50:48;;;;;;;1.88;1.70;;;;;;;29.55;46.48;100124.97;4999660;28;20104;-65
2021/07/15 12:53:42;;;;;;;2.00;1.80;;;;;;;29.12;47.41;100130.84;4999717;28;20052;-65
2021/07/15 12:56:26;;;;;;;2.00;1.73;;;;;;;28.77;48.96;100122.38;5014182;28;20045;-65